Archival Weather

Vermilion Rgnl

Danville, Illinois (KDNV)

Report from: Saturday, April 13, 2024 6:35 PM CDT
Current time: Sunday, July 14, 2024 5:13 AM CDT

Current weather – Weather history – Daily summaries
Weather forecast

Temperature19.7°C (67.5°F)
Dew point5.5°C (41.9°F)
Winds 13 kts (6.7 m/s, 15 mph) South (190°)
Wind gusts 16 kts (8.2 m/s, 18.4 mph)
Visibility10 mi. (16.1 km)
Clouds Sky clear
Altimeter29.99 in.Hg (1016 mB)
Relative humidity39 %
Density altitude605 ft. (185 m)
Remarks Fully automated report
Automated weather observing station with precipitation discriminator
Flight conditions Visual Meteorological Conditions
Raw dataKDNV 132335Z AUTO 19013G16KT 10SM CLR 20/06 A2999 RMK AO2 T01970055
An error has occurred. This application may no longer respond until reloaded. Reload 🗙